createdAt,value
2017-06-16T00:00:40.790Z,0
2017-06-16T00:01:51.302Z,0
2017-06-16T00:03:01.556Z,0
2017-06-16T00:04:11.815Z,0
2017-06-16T00:05:22.075Z,0
2017-06-16T00:06:32.017Z,0
2017-06-16T00:07:42.277Z,0
2017-06-16T00:08:52.263Z,0
2017-06-16T00:10:02.525Z,0
2017-06-16T00:11:12.474Z,0
2017-06-16T00:12:22.745Z,0
2017-06-16T00:13:33.009Z,0
2017-06-16T00:14:43.281Z,0
2017-06-16T00:15:53.229Z,0
2017-06-16T00:17:03.486Z,0
2017-06-16T00:18:13.432Z,0
2017-06-16T00:19:23.729Z,0
2017-06-16T00:20:33.676Z,0
2017-06-16T00:21:43.621Z,0
2017-06-16T00:22:53.880Z,0
2017-06-16T00:24:03.827Z,4
2017-06-16T00:25:13.770Z,4
2017-06-16T00:26:24.030Z,4
2017-06-16T00:27:33.979Z,4
2017-06-16T00:28:44.241Z,4
2017-06-16T00:29:54.520Z,4
2017-06-16T00:31:04.789Z,4
2017-06-16T00:32:14.423Z,4
2017-06-16T00:33:24.680Z,0
2017-06-16T00:34:34.941Z,0
2017-06-16T00:35:45.203Z,0
2017-06-16T00:36:54.837Z,4
2017-06-16T00:38:05.098Z,4
2017-06-16T00:39:15.363Z,4
2017-06-16T00:40:25.623Z,4
2017-06-16T00:41:35.888Z,4
2017-06-16T00:42:46.148Z,4
2017-06-16T00:43:56.410Z,4
2017-06-16T00:45:06.356Z,4
2017-06-16T00:46:16.622Z,4
2017-06-16T00:47:26.881Z,4
2017-06-16T00:48:36.830Z,4
2017-06-16T00:49:47.096Z,4
2017-06-16T00:50:57.381Z,4
2017-06-16T00:52:07.335Z,8
2017-06-16T00:53:17.595Z,4
2017-06-16T00:54:27.865Z,4
2017-06-16T00:55:38.132Z,4
2017-06-16T00:56:48.429Z,8
2017-06-16T00:57:58.377Z,8
2017-06-16T00:59:08.326Z,4
2017-06-16T01:00:18.276Z,8
2017-06-16T01:01:28.575Z,8
2017-06-16T01:02:38.212Z,8
2017-06-16T01:03:48.478Z,8
2017-06-16T01:04:58.421Z,12
2017-06-16T01:06:08.367Z,8
2017-06-16T01:07:18.626Z,8
2017-06-16T01:08:28.890Z,8
2017-06-16T01:09:39.154Z,8
2017-06-16T01:10:48.790Z,8
2017-06-16T01:11:59.050Z,4
2017-06-16T01:13:09.311Z,8
2017-06-16T01:14:19.577Z,8
2017-06-16T01:15:29.839Z,12
2017-06-16T01:16:39.783Z,12
2017-06-16T01:17:49.725Z,12
2017-06-16T01:18:59.360Z,12
2017-06-16T01:20:09.311Z,16
2017-06-16T01:21:19.572Z,20
2017-06-16T01:22:29.835Z,20
2017-06-16T01:23:40.105Z,20
2017-06-16T01:24:50.370Z,24
2017-06-16T01:26:00.630Z,24
2017-06-16T01:27:10.576Z,32
2017-06-16T01:28:20.836Z,32
2017-06-16T01:29:30.830Z,36
2017-06-16T01:30:41.097Z,44
2017-06-16T01:31:51.361Z,44
2017-06-16T01:33:01.629Z,48
2017-06-16T01:34:11.899Z,44
2017-06-16T01:35:22.165Z,44
2017-06-16T01:36:32.423Z,44
2017-06-16T01:37:42.686Z,48
2017-06-16T01:38:52.320Z,44
2017-06-16T01:40:02.619Z,48
2017-06-16T01:41:12.883Z,52
2017-06-16T01:42:23.145Z,60
2017-06-16T01:43:33.416Z,64
2017-06-16T01:44:43.671Z,72
2017-06-16T01:45:53.622Z,76
2017-06-16T01:47:03.573Z,84
2017-06-16T01:48:13.835Z,92
2017-06-16T01:49:24.099Z,96
2017-06-16T01:50:34.358Z,100
2017-06-16T01:51:44.626Z,100
2017-06-16T01:52:54.572Z,100
2017-06-16T01:54:04.833Z,100
2017-06-16T01:55:15.093Z,104
2017-06-16T01:56:24.733Z,104
2017-06-16T01:57:34.680Z,108
2017-06-16T01:58:44.627Z,108
2017-06-16T01:59:54.571Z,112
2017-06-16T02:01:04.832Z,116
2017-06-16T02:02:15.092Z,124
2017-06-16T02:03:25.350Z,136
2017-06-16T02:04:34.987Z,148
2017-06-16T02:05:44.933Z,160
2017-06-16T02:06:55.198Z,172
2017-06-16T02:08:05.146Z,192
2017-06-16T02:09:15.090Z,208
2017-06-16T02:10:25.352Z,232
2017-06-16T02:11:35.615Z,256
2017-06-16T02:12:45.566Z,280
2017-06-16T02:13:55.197Z,304
2017-06-16T02:15:05.461Z,320
2017-06-16T02:16:15.723Z,340
2017-06-16T02:17:25.988Z,352
2017-06-16T02:18:35.934Z,368
2017-06-16T02:19:46.191Z,380
2017-06-16T02:20:56.454Z,384
2017-06-16T02:22:06.718Z,388
2017-06-16T02:23:16.669Z,400
2017-06-16T02:24:26.932Z,408
2017-06-16T02:25:37.197Z,412
2017-06-16T02:26:47.459Z,424
2017-06-16T02:27:57.725Z,448
2017-06-16T02:29:07.983Z,476
2017-06-16T02:30:18.242Z,504
2017-06-16T02:31:28.196Z,528
2017-06-16T02:32:38.456Z,544
2017-06-16T02:33:48.715Z,560
2017-06-16T02:34:58.976Z,572
2017-06-16T02:36:09.261Z,588
2017-06-16T02:37:19.206Z,604
2017-06-16T02:38:29.468Z,620
2017-06-16T02:39:39.732Z,636
2017-06-16T02:40:50.005Z,648
2017-06-16T02:42:00.271Z,644
2017-06-16T02:43:10.533Z,636
2017-06-16T02:44:20.481Z,636
2017-06-16T02:45:30.738Z,640
2017-06-16T02:46:40.688Z,644
2017-06-16T02:47:50.956Z,652
2017-06-16T02:49:01.212Z,652
2017-06-16T02:50:11.477Z,648
2017-06-16T02:51:21.739Z,648
2017-06-16T02:52:32.003Z,656
2017-06-16T02:53:42.260Z,672
2017-06-16T02:54:51.898Z,688
2017-06-16T02:56:02.161Z,704
2017-06-16T02:57:12.155Z,712
2017-06-16T02:58:22.409Z,708
2017-06-16T02:59:32.669Z,708
2017-06-16T03:00:42.621Z,716
2017-06-16T03:01:52.883Z,728
2017-06-16T03:03:03.138Z,736
2017-06-16T03:04:13.439Z,764
2017-06-16T03:05:23.699Z,796
2017-06-16T03:06:33.646Z,832
2017-06-16T03:07:43.905Z,864
2017-06-16T03:08:54.169Z,896
2017-06-16T03:10:04.443Z,940
2017-06-16T03:11:14.393Z,988
2017-06-16T03:12:24.651Z,1044
2017-06-16T03:13:34.602Z,1100
2017-06-16T03:14:44.862Z,1148
2017-06-16T03:15:54.496Z,1192
2017-06-16T03:17:04.772Z,1244
2017-06-16T03:18:15.034Z,1292
2017-06-16T03:19:25.295Z,1352
2017-06-16T03:20:35.553Z,1424
2017-06-16T03:21:45.810Z,1496
2017-06-16T03:22:56.077Z,1564
2017-06-16T03:24:06.028Z,1612
2017-06-16T03:25:15.978Z,1668
2017-06-16T03:26:26.235Z,1756
2017-06-16T03:27:36.180Z,1864
2017-06-16T03:28:46.121Z,1972
2017-06-16T03:29:56.387Z,2080
2017-06-16T03:31:06.683Z,2192
2017-06-16T03:32:16.942Z,2280
2017-06-16T03:33:26.889Z,2348
2017-06-16T03:34:37.150Z,2348
2017-06-16T03:35:47.414Z,2384
2017-06-16T03:36:57.676Z,2440
2017-06-16T03:38:07.970Z,2356
2017-06-16T03:39:17.598Z,2320
2017-06-16T03:40:27.859Z,2384
2017-06-16T03:41:38.112Z,2460
2017-06-16T03:42:48.373Z,2480
2017-06-16T03:43:58.630Z,2652
2017-06-16T03:45:08.888Z,2584
2017-06-16T03:46:19.144Z,2568
2017-06-16T03:47:29.400Z,2516
2017-06-16T03:48:39.348Z,2532
2017-06-16T03:49:49.611Z,2552
2017-06-16T03:50:59.871Z,2608
2017-06-16T03:52:09.507Z,2672
2017-06-16T03:53:19.767Z,2732
2017-06-16T03:54:29.719Z,2816
2017-06-16T03:55:39.983Z,2892
2017-06-16T03:56:49.937Z,2956
2017-06-16T03:57:59.879Z,2980
2017-06-16T03:59:09.516Z,3000
2017-06-16T04:00:19.785Z,3076
2017-06-16T04:01:29.733Z,3216
2017-06-16T04:02:39.683Z,3336
2017-06-16T04:03:49.945Z,3472
2017-06-16T04:05:00.205Z,3696
2017-06-16T04:06:10.471Z,3796
2017-06-16T04:07:20.730Z,3912
2017-06-16T04:08:30.677Z,3888
2017-06-16T04:09:40.939Z,3736
2017-06-16T04:10:51.202Z,3720
2017-06-16T04:12:01.463Z,3720
2017-06-16T04:13:11.409Z,3732
2017-06-16T04:14:21.673Z,3768
2017-06-16T04:15:31.626Z,3828
2017-06-16T04:16:41.570Z,3916
2017-06-16T04:17:51.838Z,4028
2017-06-16T04:19:02.106Z,4116
2017-06-16T04:20:12.370Z,4200
2017-06-16T04:21:22.631Z,4288
2017-06-16T04:22:32.898Z,4436
2017-06-16T04:23:43.165Z,4560
2017-06-16T04:24:52.802Z,4524
2017-06-16T04:26:02.440Z,4484
2017-06-16T04:27:12.701Z,4484
2017-06-16T04:28:22.648Z,4544
2017-06-16T04:29:32.903Z,4600
2017-06-16T04:30:43.164Z,4656
2017-06-16T04:31:53.418Z,4740
2017-06-16T04:33:03.676Z,4836
2017-06-16T04:34:13.940Z,4924
2017-06-16T04:35:24.204Z,5024
2017-06-16T04:36:34.463Z,5128
2017-06-16T04:37:44.719Z,5216
2017-06-16T04:38:54.980Z,5292
2017-06-16T04:40:04.927Z,5344
2017-06-16T04:41:14.877Z,5380
2017-06-16T04:42:25.146Z,5404
2017-06-16T04:43:35.411Z,5428
2017-06-16T04:44:45.680Z,5460
2017-06-16T04:45:55.948Z,5520
2017-06-16T04:47:06.219Z,5624
2017-06-16T04:48:16.484Z,5756
2017-06-16T04:49:26.779Z,5872
2017-06-16T04:50:37.047Z,5980
2017-06-16T04:51:47.309Z,6056
2017-06-16T04:52:57.572Z,6092
2017-06-16T04:54:07.519Z,6092
2017-06-16T04:55:17.785Z,6044
2017-06-16T04:56:28.050Z,6000
2017-06-16T04:57:38.315Z,5964
2017-06-16T04:58:48.573Z,5944
2017-06-16T04:59:58.841Z,5948
2017-06-16T05:01:08.795Z,5980
2017-06-16T05:02:19.055Z,6032
2017-06-16T05:03:29.003Z,6104
2017-06-16T05:04:39.269Z,6192
2017-06-16T05:05:49.533Z,6272
2017-06-16T05:06:59.477Z,6320
2017-06-16T05:08:09.427Z,6352
2017-06-16T05:09:19.681Z,6380
2017-06-16T05:10:29.626Z,6412
2017-06-16T05:11:39.887Z,6460
2017-06-16T05:12:50.170Z,6516
2017-06-16T05:14:00.121Z,6564
2017-06-16T05:15:10.100Z,6604
2017-06-16T05:16:20.360Z,6624
2017-06-16T05:17:30.633Z,6644
2017-06-16T05:18:40.920Z,6660
2017-06-16T05:19:50.864Z,6668
2017-06-16T05:21:00.825Z,6672
2017-06-16T05:22:10.787Z,6680
2017-06-16T05:23:21.055Z,6672
2017-06-16T05:24:31.003Z,6656
2017-06-16T05:25:41.264Z,6632
2017-06-16T05:26:51.528Z,6604
2017-06-16T05:28:01.478Z,6584
2017-06-16T05:29:11.451Z,6556
2017-06-16T05:30:21.723Z,6528
2017-06-16T05:31:32.030Z,6516
2017-06-16T05:32:42.291Z,6544
2017-06-16T05:33:52.569Z,6564
2017-06-16T05:35:02.969Z,6616
2017-06-16T05:36:13.235Z,6684
2017-06-16T05:37:23.499Z,6744
2017-06-16T05:38:33.446Z,6828
2017-06-16T05:39:43.402Z,6920
2017-06-16T05:40:53.357Z,6996
2017-06-16T05:42:03.307Z,7032
2017-06-16T05:43:13.259Z,7096
2017-06-16T05:44:23.515Z,7160
2017-06-16T05:45:33.464Z,7336
2017-06-16T05:46:43.737Z,7432
2017-06-16T05:47:53.684Z,7468
2017-06-16T05:49:03.630Z,7584
2017-06-16T05:50:13.584Z,7652
2017-06-16T05:51:23.852Z,7604
2017-06-16T05:52:34.116Z,7716
2017-06-16T05:53:44.376Z,7684
2017-06-16T05:54:54.638Z,7744
2017-06-16T05:56:04.590Z,7768
2017-06-16T05:57:14.546Z,7872
2017-06-16T05:58:24.808Z,7952
2017-06-16T05:59:35.072Z,8076
2017-06-16T06:00:45.340Z,8188
2017-06-16T06:01:55.603Z,8452
2017-06-16T06:03:05.877Z,8744
2017-06-16T06:04:18.145Z,8832
2017-06-16T06:05:28.410Z,8840
2017-06-16T06:06:38.683Z,8856
2017-06-16T06:07:48.954Z,8736
2017-06-16T06:08:59.217Z,8636
2017-06-16T06:10:09.486Z,8568
2017-06-16T06:11:19.757Z,8644
2017-06-16T06:12:30.048Z,8748
2017-06-16T06:13:39.683Z,8820
2017-06-16T06:14:49.957Z,8904
2017-06-16T06:16:00.227Z,8968
2017-06-16T06:17:10.499Z,9036
2017-06-16T06:18:20.761Z,9052
2017-06-16T06:19:31.034Z,9136
2017-06-16T06:20:41.299Z,9216
2017-06-16T06:21:51.247Z,9268
2017-06-16T06:23:01.516Z,9432
2017-06-16T06:24:11.779Z,9604
2017-06-16T06:25:22.045Z,9840
2017-06-16T06:26:31.997Z,10008
2017-06-16T06:27:42.258Z,10156
2017-06-16T06:28:52.518Z,10256
2017-06-16T06:30:02.470Z,10212
2017-06-16T06:31:12.739Z,10076
2017-06-16T06:32:23.004Z,9932
2017-06-16T06:33:32.646Z,9816
2017-06-16T06:34:42.909Z,9724
2017-06-16T06:35:53.179Z,9700
2017-06-16T06:37:03.140Z,9708
2017-06-16T06:38:13.411Z,9744
2017-06-16T06:39:23.686Z,9832
2017-06-16T06:40:33.955Z,9984
2017-06-16T06:41:44.228Z,10036
2017-06-16T06:42:54.498Z,10072
2017-06-16T06:44:04.449Z,10116
2017-06-16T06:45:14.728Z,10084
2017-06-16T06:46:24.994Z,10004
2017-06-16T06:47:35.259Z,9948
2017-06-16T06:48:45.213Z,9892
2017-06-16T06:49:55.483Z,9912
2017-06-16T06:51:07.437Z,9948
2017-06-16T06:52:17.700Z,10044
2017-06-16T06:53:27.970Z,10184
2017-06-16T06:54:38.236Z,10348
2017-06-16T06:55:48.500Z,10528
2017-06-16T06:56:58.481Z,10692
2017-06-16T06:58:08.437Z,10836
2017-06-16T06:59:18.392Z,10984
2017-06-16T07:00:28.667Z,11076
2017-06-16T07:01:38.625Z,11092
2017-06-16T07:02:48.895Z,11116
2017-06-16T07:03:59.164Z,11176
2017-06-16T07:05:09.115Z,11352
2017-06-16T07:06:19.390Z,11600
2017-06-16T07:07:29.662Z,11820
2017-06-16T07:08:39.930Z,11892
2017-06-16T07:09:50.197Z,11772
2017-06-16T07:11:00.146Z,11432
2017-06-16T07:12:09.781Z,10752
2017-06-16T07:13:19.739Z,9888
2017-06-16T07:14:30.006Z,9288
2017-06-16T07:15:39.640Z,8964
2017-06-16T07:16:49.898Z,8708
2017-06-16T07:18:00.159Z,8380
2017-06-16T07:19:10.116Z,8008
2017-06-16T07:20:20.381Z,7676
2017-06-16T07:21:30.676Z,7376
2017-06-16T07:22:40.950Z,7000
2017-06-16T07:23:50.594Z,6396
2017-06-16T07:25:00.865Z,5556
2017-06-16T07:26:10.828Z,4796
2017-06-16T07:27:20.781Z,4276
2017-06-16T07:28:31.056Z,3860
2017-06-16T07:29:41.321Z,3504
2017-06-16T07:30:50.645Z,3280
2017-06-16T07:32:00.651Z,3240
2017-06-16T07:33:10.913Z,3336
2017-06-16T07:34:21.182Z,3600
2017-06-16T07:35:31.132Z,4052
2017-06-16T07:36:41.402Z,4620
2017-06-16T07:37:51.033Z,5008
2017-06-16T07:39:00.984Z,4892
2017-06-16T07:40:10.933Z,4352
2017-06-16T07:41:21.196Z,3808
2017-06-16T07:42:31.462Z,3484
2017-06-16T07:43:41.732Z,3344
2017-06-16T07:44:51.997Z,3324
2017-06-16T07:46:02.260Z,3236
2017-06-16T07:47:12.522Z,3272
2017-06-16T07:48:22.787Z,3620
2017-06-16T07:49:33.055Z,4128
2017-06-16T07:50:43.311Z,4608
2017-06-16T07:51:53.578Z,5200
2017-06-16T07:53:03.844Z,6088
2017-06-16T07:54:13.480Z,7044
2017-06-16T07:55:23.751Z,7580
2017-06-16T07:56:33.705Z,7860
2017-06-16T07:57:43.650Z,8160
2017-06-16T07:58:53.916Z,8516
2017-06-16T08:00:04.179Z,8668
2017-06-16T08:01:14.132Z,8504
2017-06-16T08:02:24.399Z,7908
2017-06-16T08:03:34.360Z,7200
2017-06-16T08:04:44.627Z,6904
2017-06-16T08:05:54.953Z,7192
2017-06-16T08:07:04.590Z,7840
2017-06-16T08:08:14.225Z,8504
2017-06-16T08:09:24.187Z,9016
2017-06-16T08:10:34.450Z,9408
2017-06-16T08:11:44.716Z,9816
2017-06-16T08:12:54.984Z,9768
2017-06-16T08:14:05.256Z,9704
2017-06-16T08:15:15.206Z,10048
2017-06-16T08:16:25.474Z,10376
2017-06-16T08:17:35.762Z,10372
2017-06-16T08:18:45.728Z,10228
2017-06-16T08:19:56.064Z,10124
2017-06-16T08:21:06.333Z,9920
2017-06-16T08:22:15.987Z,9544
2017-06-16T08:23:25.983Z,9072
2017-06-16T08:24:36.255Z,8548
2017-06-16T08:25:46.520Z,7956
2017-06-16T08:26:56.784Z,7172
2017-06-16T08:28:06.741Z,6384
2017-06-16T08:29:16.688Z,5788
2017-06-16T08:30:26.637Z,5392
2017-06-16T08:31:36.596Z,5116
2017-06-16T08:32:46.542Z,4912
2017-06-16T08:33:56.816Z,4904
2017-06-16T08:35:07.087Z,5208
2017-06-16T08:36:17.356Z,5772
2017-06-16T08:37:27.313Z,6388
2017-06-16T08:38:37.263Z,6928
2017-06-16T08:39:47.577Z,7388
2017-06-16T08:40:57.845Z,7888
2017-06-16T08:42:07.484Z,8532
2017-06-16T08:43:17.117Z,9164
2017-06-16T08:44:27.388Z,9668
2017-06-16T08:45:37.343Z,10080
2017-06-16T08:46:47.611Z,10548
2017-06-16T08:47:57.877Z,11124
2017-06-16T08:49:08.137Z,11736
2017-06-16T08:50:18.401Z,12268
2017-06-16T08:51:28.664Z,12692
2017-06-16T08:52:38.927Z,13076
2017-06-16T08:53:48.881Z,13508
2017-06-16T08:54:58.831Z,14024
2017-06-16T08:56:08.786Z,14572
2017-06-16T08:57:18.751Z,15064
2017-06-16T08:58:29.033Z,15320
2017-06-16T08:59:39.349Z,15400
2017-06-16T09:00:49.299Z,15576
2017-06-16T09:01:59.564Z,15956
2017-06-16T09:03:09.841Z,16576
2017-06-16T09:04:20.109Z,16864
2017-06-16T09:05:29.750Z,16928
2017-06-16T09:06:40.019Z,16928
2017-06-16T09:07:50.008Z,16992
2017-06-16T09:09:00.268Z,17024
2017-06-16T09:10:09.909Z,17056
2017-06-16T09:11:20.181Z,17088
2017-06-16T09:12:30.454Z,17184
2017-06-16T09:13:40.411Z,17120
2017-06-16T09:14:50.675Z,17312
2017-06-16T09:16:00.945Z,17504
2017-06-16T09:17:10.585Z,17568
2017-06-16T09:18:20.539Z,17440
2017-06-16T09:19:30.806Z,17216
2017-06-16T09:20:41.073Z,17088
2017-06-16T09:21:51.054Z,17056
2017-06-16T09:23:01.044Z,16928
2017-06-16T09:24:11.316Z,16832
2017-06-16T09:25:21.286Z,16704
2017-06-16T09:26:31.558Z,16544
2017-06-16T09:27:41.824Z,16352
2017-06-16T09:28:52.087Z,15956
2017-06-16T09:30:02.358Z,15764
2017-06-16T09:31:12.627Z,15648
2017-06-16T09:32:22.580Z,15576
2017-06-16T09:33:32.847Z,15508
2017-06-16T09:34:43.122Z,15468
2017-06-16T09:35:53.397Z,15436
2017-06-16T09:37:03.663Z,15372
2017-06-16T09:38:13.618Z,15272
2017-06-16T09:39:23.886Z,15104
2017-06-16T09:40:33.846Z,14888
2017-06-16T09:41:44.153Z,14776
2017-06-16T09:42:54.419Z,14760
2017-06-16T09:44:04.378Z,14828
2017-06-16T09:45:14.651Z,15068
2017-06-16T09:46:24.923Z,15308
2017-06-16T09:47:35.197Z,15540
2017-06-16T09:48:45.471Z,15764
2017-06-16T09:49:55.739Z,15944
2017-06-16T09:51:06.008Z,15940
2017-06-16T09:52:15.970Z,15912
2017-06-16T09:53:25.982Z,16608
2017-06-16T09:54:36.249Z,17440
2017-06-16T09:55:46.518Z,18272
2017-06-16T09:56:56.469Z,18688
2017-06-16T09:58:06.422Z,18560
2017-06-16T09:59:15.750Z,18208
2017-06-16T10:00:26.017Z,18048
2017-06-16T10:01:36.288Z,18240
2017-06-16T10:02:46.559Z,18496
2017-06-16T10:03:56.824Z,18528
2017-06-16T10:05:06.465Z,18592
2017-06-16T10:06:16.107Z,18688
2017-06-16T10:07:25.747Z,18880
2017-06-16T10:08:36.048Z,19584
2017-06-16T10:09:46.311Z,19520
2017-06-16T10:10:56.577Z,18592
2017-06-16T10:12:06.852Z,16864
2017-06-16T10:13:16.847Z,14780
2017-06-16T10:14:26.489Z,13284
2017-06-16T10:15:36.445Z,12404
2017-06-16T10:16:46.395Z,11316
2017-06-16T10:17:56.667Z,11588
2017-06-16T10:19:06.629Z,12240
2017-06-16T10:20:16.273Z,12400
2017-06-16T10:21:26.547Z,12348
2017-06-16T10:22:36.502Z,13028
2017-06-16T10:23:46.772Z,14348
2017-06-16T10:24:57.039Z,15364
2017-06-16T10:26:07.045Z,15568
2017-06-16T10:27:17.006Z,15588
2017-06-16T10:28:27.279Z,15352
2017-06-16T10:29:37.566Z,14932
2017-06-16T10:30:47.836Z,14548
2017-06-16T10:31:58.104Z,13916
2017-06-16T10:33:08.055Z,13056
2017-06-16T10:34:18.324Z,12052
2017-06-16T10:35:28.591Z,10864
2017-06-16T10:36:38.542Z,10184
2017-06-16T10:37:48.804Z,9700
2017-06-16T10:38:58.797Z,8968
2017-06-16T10:40:08.752Z,8268
2017-06-16T10:41:18.390Z,7776
2017-06-16T10:42:28.674Z,7220
2017-06-16T10:43:38.631Z,6736
2017-06-16T10:44:48.583Z,6480
2017-06-16T10:45:58.851Z,6504
2017-06-16T10:47:09.122Z,6832
2017-06-16T10:48:19.394Z,7236
2017-06-16T10:49:29.661Z,7684
2017-06-16T10:50:39.927Z,7988
2017-06-16T10:51:50.203Z,8088
2017-06-16T10:53:00.474Z,8112
2017-06-16T10:54:10.744Z,8172
2017-06-16T10:55:21.026Z,8268
2017-06-16T10:56:30.980Z,8312
2017-06-16T10:57:41.245Z,8296
2017-06-16T10:58:51.513Z,8260
2017-06-16T11:00:01.463Z,8256
2017-06-16T11:01:11.731Z,8320
2017-06-16T11:02:21.997Z,8424
2017-06-16T11:03:32.260Z,8580
2017-06-16T11:04:42.530Z,8800
2017-06-16T11:05:52.796Z,9104
2017-06-16T11:07:02.750Z,9528
2017-06-16T11:08:12.702Z,10036
2017-06-16T11:09:22.341Z,10612
2017-06-16T11:10:32.621Z,11236
2017-06-16T11:11:42.889Z,11900
2017-06-16T11:12:53.158Z,12640
2017-06-16T11:14:03.118Z,13432
2017-06-16T11:15:13.075Z,14244
2017-06-16T11:16:23.380Z,14960
2017-06-16T11:17:33.726Z,15544
2017-06-16T11:18:43.681Z,16036
2017-06-16T11:19:53.319Z,16480
2017-06-16T11:21:03.586Z,16704
2017-06-16T11:22:13.227Z,16928
2017-06-16T11:23:22.863Z,17184
2017-06-16T11:24:33.127Z,17376
2017-06-16T11:25:43.129Z,17440
2017-06-16T11:26:53.401Z,17504
2017-06-16T11:28:03.687Z,17440
2017-06-16T11:29:13.638Z,16992
2017-06-16T11:30:23.594Z,16480
2017-06-16T11:31:33.862Z,15964
2017-06-16T11:32:44.129Z,15640
2017-06-16T11:33:54.395Z,15512
2017-06-16T11:35:04.663Z,14836
2017-06-16T11:36:14.937Z,14072
2017-06-16T11:37:25.210Z,13352
2017-06-16T11:38:35.470Z,12672
2017-06-16T11:39:45.752Z,11980
2017-06-16T11:40:55.704Z,11412
2017-06-16T11:42:05.713Z,10876
2017-06-16T11:43:15.671Z,10276
2017-06-16T11:44:25.948Z,9732
2017-06-16T11:45:36.218Z,9372
2017-06-16T11:46:46.494Z,9212
2017-06-16T11:47:56.450Z,9180
2017-06-16T11:49:06.719Z,9324
2017-06-16T11:50:16.678Z,9436
2017-06-16T11:51:26.949Z,9480
2017-06-16T11:52:36.905Z,9804
2017-06-16T11:53:46.860Z,10044
2017-06-16T11:54:57.126Z,10060
2017-06-16T11:56:07.396Z,10060
2017-06-16T11:57:17.040Z,10064
2017-06-16T11:58:27.308Z,10040
2017-06-16T11:59:37.573Z,10060
2017-06-16T12:00:47.842Z,10140
2017-06-16T12:01:58.114Z,10228
2017-06-16T12:03:08.074Z,10364
2017-06-16T12:04:18.027Z,10596
2017-06-16T12:05:28.312Z,10756
2017-06-16T12:06:38.585Z,10884
2017-06-16T12:07:48.228Z,10952
2017-06-16T12:08:58.510Z,10924
2017-06-16T12:10:08.462Z,10732
2017-06-16T12:11:18.425Z,10408
2017-06-16T12:12:28.692Z,9984
2017-06-16T12:13:38.961Z,9624
2017-06-16T12:14:49.233Z,9376
2017-06-16T12:15:59.512Z,9240
2017-06-16T12:17:09.468Z,9216
2017-06-16T12:18:19.429Z,9280
2017-06-16T12:19:29.698Z,9384
2017-06-16T12:20:39.655Z,9576
2017-06-16T12:21:49.927Z,9948
2017-06-16T12:23:00.201Z,10536
2017-06-16T12:24:10.469Z,11368
2017-06-16T12:25:20.735Z,12424
2017-06-16T12:26:31.006Z,13636
2017-06-16T12:27:41.275Z,14932
2017-06-16T12:28:51.546Z,16352
2017-06-16T12:30:01.812Z,17568
2017-06-16T12:31:11.762Z,18624
2017-06-16T12:32:22.031Z,19360
2017-06-16T12:33:32.296Z,19840
2017-06-16T12:34:42.565Z,20032
2017-06-16T12:35:52.829Z,20128
2017-06-16T12:37:02.469Z,19904
2017-06-16T12:38:12.736Z,19616
2017-06-16T12:39:23.000Z,19424
2017-06-16T12:40:33.274Z,19488
2017-06-16T12:41:43.537Z,19808
2017-06-16T12:42:53.810Z,19904
2017-06-16T12:44:03.767Z,19456
2017-06-16T12:45:13.409Z,18528
2017-06-16T12:46:23.366Z,17344
2017-06-16T12:47:33.634Z,16112
2017-06-16T12:48:43.597Z,15392
2017-06-16T12:49:53.863Z,14908
2017-06-16T12:51:03.817Z,14616
2017-06-16T12:52:13.469Z,14540
2017-06-16T12:53:23.741Z,14516
2017-06-16T12:54:33.706Z,14428
2017-06-16T12:55:43.979Z,14240
2017-06-16T12:56:54.247Z,13984
2017-06-16T12:58:04.210Z,13916
2017-06-16T12:59:13.849Z,14148
2017-06-16T13:00:23.809Z,14576
2017-06-16T13:01:34.081Z,15020
2017-06-16T13:02:44.031Z,15344
2017-06-16T13:03:54.311Z,15524
2017-06-16T13:05:04.265Z,15624
2017-06-16T13:06:14.218Z,15600
2017-06-16T13:07:24.194Z,15448
2017-06-16T13:08:34.463Z,15280
2017-06-16T13:09:44.737Z,15212
2017-06-16T13:10:55.017Z,15388
2017-06-16T13:12:05.292Z,15812
2017-06-16T13:13:15.640Z,16448
2017-06-16T13:14:26.396Z,16672
2017-06-16T13:15:37.021Z,16640
2017-06-16T13:16:47.459Z,16640
2017-06-16T13:17:57.757Z,16736
2017-06-16T13:19:07.715Z,16896
2017-06-16T13:20:17.981Z,17152
2017-06-16T13:21:28.248Z,17536
2017-06-16T13:22:38.211Z,18144
2017-06-16T13:23:48.161Z,19328
2017-06-16T13:24:58.427Z,20416
2017-06-16T13:26:08.390Z,21472
2017-06-16T13:27:18.337Z,22176
2017-06-16T13:28:28.598Z,21344
2017-06-16T13:29:38.864Z,21760
2017-06-16T13:30:48.819Z,21952
2017-06-16T13:31:58.774Z,21280
2017-06-16T13:33:08.425Z,20128
2017-06-16T13:34:18.381Z,18912
2017-06-16T13:35:28.644Z,18016
2017-06-16T13:36:38.911Z,17632
2017-06-16T13:37:49.180Z,17536
2017-06-16T13:38:59.458Z,17408
2017-06-16T13:40:09.414Z,17056
2017-06-16T13:41:19.686Z,16800
2017-06-16T13:42:29.958Z,16832
2017-06-16T13:43:40.226Z,17088
2017-06-16T13:44:50.180Z,17440
2017-06-16T13:46:00.144Z,17824
2017-06-16T13:47:10.414Z,18144
2017-06-16T13:48:20.682Z,18208
2017-06-16T13:49:30.633Z,18464
2017-06-16T13:50:40.894Z,18592
2017-06-16T13:51:51.159Z,19168
2017-06-16T13:53:01.107Z,19744
2017-06-16T13:54:10.744Z,20544
2017-06-16T13:55:21.009Z,20960
2017-06-16T13:56:31.295Z,21408
2017-06-16T13:57:41.563Z,21600
2017-06-16T13:58:51.837Z,21152
2017-06-16T14:00:02.109Z,22368
2017-06-16T14:01:12.369Z,24000
2017-06-16T14:02:22.636Z,26112
2017-06-16T14:03:32.898Z,26560
2017-06-16T14:04:42.854Z,24352
2017-06-16T14:05:53.125Z,20288
2017-06-16T14:07:03.385Z,18400
2017-06-16T14:08:12.713Z,16512
2017-06-16T14:09:23.029Z,15856
2017-06-16T14:10:33.300Z,16928
2017-06-16T14:11:43.566Z,16384
2017-06-16T14:12:53.833Z,16320
2017-06-16T14:14:03.781Z,15776
2017-06-16T14:15:13.738Z,15584
2017-06-16T14:16:24.014Z,15848
2017-06-16T14:17:33.658Z,16576
2017-06-16T14:18:43.920Z,17344
2017-06-16T14:19:53.869Z,17984
2017-06-16T14:21:04.132Z,17792
2017-06-16T14:22:13.767Z,17376
2017-06-16T14:23:24.032Z,16960
2017-06-16T14:24:33.992Z,16544
2017-06-16T14:25:44.258Z,16288
2017-06-16T14:26:54.213Z,16040
2017-06-16T14:28:04.170Z,16224
2017-06-16T14:29:14.468Z,16288
2017-06-16T14:30:24.735Z,16544
2017-06-16T14:31:35.004Z,16832
2017-06-16T14:32:45.272Z,16864
2017-06-16T14:33:55.232Z,16608
2017-06-16T14:35:05.186Z,16416
2017-06-16T14:36:15.450Z,16020
2017-06-16T14:37:25.710Z,15004
2017-06-16T14:38:35.975Z,14212
2017-06-16T14:39:46.267Z,13604
2017-06-16T14:40:56.225Z,13276
2017-06-16T14:42:06.495Z,12816
2017-06-16T14:43:16.136Z,12428
2017-06-16T14:44:26.087Z,12140
2017-06-16T14:45:36.356Z,11904
2017-06-16T14:46:46.617Z,11652
2017-06-16T14:47:56.570Z,11380
2017-06-16T14:49:06.516Z,11124
2017-06-16T14:50:16.468Z,10908
2017-06-16T14:51:26.730Z,10696
2017-06-16T14:52:36.994Z,10432
2017-06-16T14:53:46.938Z,10168
2017-06-16T14:54:56.896Z,9928
2017-06-16T14:56:07.162Z,9688
2017-06-16T14:57:17.131Z,9464
2017-06-16T14:58:27.399Z,9252
2017-06-16T14:59:37.663Z,9068
2017-06-16T15:00:47.928Z,8908
2017-06-16T15:01:58.219Z,8768
2017-06-16T15:03:08.170Z,8660
2017-06-16T15:04:18.435Z,8596
2017-06-16T15:05:28.386Z,8580
2017-06-16T15:06:38.649Z,8572
2017-06-16T15:07:48.924Z,8560
2017-06-16T15:08:59.196Z,8552
2017-06-16T15:10:09.154Z,8548
2017-06-16T15:11:19.416Z,8568
2017-06-16T15:12:29.683Z,8600
2017-06-16T15:13:39.946Z,8644
2017-06-16T15:14:50.211Z,8680
2017-06-16T15:16:00.479Z,8692
2017-06-16T15:17:10.433Z,8624
2017-06-16T15:18:20.697Z,8504
2017-06-16T15:19:30.956Z,8352
2017-06-16T15:20:40.917Z,8192
2017-06-16T15:21:51.184Z,8052
2017-06-16T15:23:01.452Z,7924
2017-06-16T15:24:11.726Z,7820
2017-06-16T15:25:21.682Z,7764
2017-06-16T15:26:31.975Z,7756
2017-06-16T15:27:41.929Z,7800
2017-06-16T15:28:52.215Z,7880
2017-06-16T15:30:02.482Z,7984
2017-06-16T15:31:12.437Z,8084
2017-06-16T15:32:22.699Z,8156
2017-06-16T15:33:32.969Z,8188